RYR108 LIME-LFBO
Flight info
| Callsign | RYR108 |
|---|---|
| Flight time | N/A |
| Altitude | 37000 |
| Route | VOG DCT GEKBA DCT VAMTU DCT KOLON DCT GANGU DCT PADKO/N0454F360 DCT FJR/N0454F320 DCT AFRIC |
| Aircraft | B738/M-SDE2E3FGHIRWXY/LB1 |
Departure
| Time | N/A |
|---|---|
| Airport | Il Caravaggio International Airport (LIME) |
Arrival
| Time | 2026-05-04 16:35 |
|---|---|
| Airport | Toulouse-Blagnac Airport (LFBO) |
| Time | Latitude | Longitude | Altitude | Speed | Heading |
|---|---|---|---|---|---|
| 2026-05-04 15:30 | 45.06663 | 9.50667 | 19707 ft | 393 kts | 251° |
| 2026-05-04 15:30 | 45.04472 | 9.39448 | 21205 ft | 399 kts | 258° |
| 2026-05-04 15:31 | 45.03042 | 9.31856 | 22126 ft | 405 kts | 257° |
| 2026-05-04 15:31 | 45.02314 | 9.27998 | 22557 ft | 408 kts | 258° |
| 2026-05-04 15:32 | 45.00091 | 9.16253 | 23795 ft | 417 kts | 258° |
| 2026-05-04 15:32 | 44.98581 | 9.08305 | 24568 ft | 422 kts | 258° |
| 2026-05-04 15:33 | 44.96931 | 9.00299 | 25339 ft | 429 kts | 253° |
| 2026-05-04 15:34 | 44.92492 | 8.90192 | 26444 ft | 442 kts | 235° |
| 2026-05-04 15:34 | 44.90535 | 8.86792 | 26731 ft | 445 kts | 236° |
| 2026-05-04 15:34 | 44.86684 | 8.80035 | 27383 ft | 448 kts | 236° |
| 2026-05-04 15:35 | 44.82751 | 8.73173 | 27989 ft | 451 kts | 236° |
| 2026-05-04 15:35 | 44.80772 | 8.69732 | 28237 ft | 454 kts | 236° |
| 2026-05-04 15:35 | 44.78785 | 8.66280 | 28537 ft | 454 kts | 236° |
| 2026-05-04 15:36 | 44.74792 | 8.59363 | 29038 ft | 458 kts | 236° |
| 2026-05-04 15:36 | 44.72785 | 8.55894 | 29295 ft | 459 kts | 236° |
| 2026-05-04 15:36 | 44.70773 | 8.52422 | 29571 ft | 460 kts | 236° |
| 2026-05-04 15:37 | 44.68756 | 8.48946 | 29837 ft | 461 kts | 236° |
| 2026-05-04 15:37 | 44.66715 | 8.45433 | 30127 ft | 461 kts | 236° |
| 2026-05-04 15:37 | 44.64708 | 8.41984 | 30417 ft | 460 kts | 236° |
| 2026-05-04 15:37 | 44.62687 | 8.38515 | 30719 ft | 460 kts | 236° |
| 2026-05-04 15:38 | 44.60683 | 8.35079 | 31016 ft | 459 kts | 236° |
| 2026-05-04 15:38 | 44.58659 | 8.31613 | 31300 ft | 459 kts | 235° |
| 2026-05-04 15:38 | 44.56643 | 8.28168 | 31606 ft | 458 kts | 235° |
| 2026-05-04 15:38 | 44.54636 | 8.24741 | 31901 ft | 457 kts | 236° |
| 2026-05-04 15:39 | 44.52632 | 8.21324 | 32193 ft | 456 kts | 236° |
| 2026-05-04 15:39 | 44.50622 | 8.17900 | 32502 ft | 455 kts | 236° |
| 2026-05-04 15:39 | 44.46619 | 8.11093 | 33089 ft | 453 kts | 236° |
| 2026-05-04 15:40 | 44.44624 | 8.07707 | 33389 ft | 452 kts | 236° |
| 2026-05-04 15:40 | 44.42624 | 8.04315 | 33652 ft | 451 kts | 236° |
| 2026-05-04 15:40 | 44.40629 | 8.00936 | 33978 ft | 450 kts | 236° |
| 2026-05-04 15:40 | 44.38652 | 7.97592 | 34232 ft | 449 kts | 236° |
| 2026-05-04 15:41 | 44.36671 | 7.94243 | 34504 ft | 448 kts | 236° |
| 2026-05-04 15:41 | 44.34683 | 7.90887 | 34757 ft | 448 kts | 236° |
| 2026-05-04 15:41 | 44.32710 | 7.87559 | 35002 ft | 447 kts | 236° |
| 2026-05-04 15:41 | 44.30748 | 7.84251 | 35247 ft | 447 kts | 236° |
| 2026-05-04 15:42 | 44.28767 | 7.80932 | 35497 ft | 446 kts | 236° |
| 2026-05-04 15:42 | 44.26677 | 7.77685 | 35711 ft | 449 kts | 230° |
| 2026-05-04 15:42 | 44.24391 | 7.74733 | 35930 ft | 451 kts | 227° |
| 2026-05-04 15:42 | 44.22046 | 7.71858 | 36141 ft | 451 kts | 227° |
| 2026-05-04 15:43 | 44.19711 | 7.68977 | 36307 ft | 451 kts | 227° |
| 2026-05-04 15:43 | 44.17353 | 7.66059 | 36514 ft | 450 kts | 227° |
| 2026-05-04 15:43 | 44.15015 | 7.63143 | 36693 ft | 449 kts | 230° |
| 2026-05-04 15:43 | 44.12882 | 7.60030 | 36848 ft | 444 kts | 234° |
| 2026-05-04 15:44 | 44.10893 | 7.56807 | 37053 ft | 442 kts | 235° |
| 2026-05-04 15:44 | 44.06869 | 7.50329 | 37088 ft | 441 kts | 235° |
| 2026-05-04 15:45 | 44.02863 | 7.43927 | 37068 ft | 439 kts | 235° |
| 2026-05-04 15:45 | 43.98876 | 7.37569 | 37050 ft | 440 kts | 235° |
| 2026-05-04 15:46 | 43.94826 | 7.31126 | 37048 ft | 443 kts | 234° |
| 2026-05-04 15:46 | 43.90791 | 7.24730 | 37047 ft | 443 kts | 234° |
| 2026-05-04 15:47 | 43.86741 | 7.18325 | 37046 ft | 443 kts | 234° |
| 2026-05-04 15:47 | 43.82697 | 7.11948 | 37036 ft | 442 kts | 235° |
| 2026-05-04 15:48 | 43.78671 | 7.05621 | 37023 ft | 440 kts | 236° |
| 2026-05-04 15:48 | 43.72999 | 6.95820 | 37007 ft | 429 kts | 245° |
| 2026-05-04 15:49 | 43.70266 | 6.88627 | 37000 ft | 420 kts | 253° |
| 2026-05-04 15:49 | 43.68061 | 6.81348 | 37000 ft | 421 kts | 254° |
| 2026-05-04 15:50 | 43.65818 | 6.73899 | 37000 ft | 421 kts | 254° |
| 2026-05-04 15:50 | 43.63590 | 6.66453 | 37004 ft | 421 kts | 255° |
| 2026-05-04 15:51 | 43.61386 | 6.59071 | 37019 ft | 420 kts | 255° |
| 2026-05-04 15:52 | 43.56926 | 6.44141 | 37046 ft | 420 kts | 255° |
| 2026-05-04 15:52 | 43.54711 | 6.36748 | 37047 ft | 421 kts | 255° |
| 2026-05-04 15:53 | 43.52494 | 6.29378 | 37047 ft | 422 kts | 254° |
| 2026-05-04 15:53 | 43.50245 | 6.21930 | 37047 ft | 422 kts | 254° |
| 2026-05-04 15:54 | 43.48001 | 6.14508 | 37046 ft | 421 kts | 254° |
| 2026-05-04 15:54 | 43.45773 | 6.07156 | 37047 ft | 421 kts | 254° |
| 2026-05-04 15:55 | 43.43516 | 5.99732 | 37047 ft | 421 kts | 254° |
| 2026-05-04 15:55 | 43.41266 | 5.92345 | 37043 ft | 421 kts | 254° |
| 2026-05-04 15:56 | 43.38999 | 5.84922 | 37041 ft | 421 kts | 254° |
| 2026-05-04 15:56 | 43.36741 | 5.77555 | 37043 ft | 421 kts | 254° |
| 2026-05-04 15:57 | 43.34479 | 5.70191 | 37041 ft | 421 kts | 254° |
| 2026-05-04 15:57 | 43.32204 | 5.62808 | 37026 ft | 421 kts | 254° |
| 2026-05-04 15:58 | 43.29933 | 5.55453 | 37012 ft | 421 kts | 254° |
| 2026-05-04 15:58 | 43.27632 | 5.48025 | 37000 ft | 421 kts | 254° |
| 2026-05-04 15:59 | 43.25431 | 5.40625 | 36994 ft | 415 kts | 261° |
| 2026-05-04 15:59 | 43.24631 | 5.32964 | 37005 ft | 407 kts | 271° |
| 2026-05-04 16:00 | 43.24662 | 5.29146 | 36992 ft | 401 kts | 282° |
| 2026-05-04 16:00 | 43.25330 | 5.25465 | 37005 ft | 397 kts | 290° |
| 2026-05-04 16:00 | 43.27117 | 5.18327 | 36999 ft | 397 kts | 291° |
| 2026-05-04 16:01 | 43.28930 | 5.11206 | 36999 ft | 396 kts | 291° |
| 2026-05-04 16:01 | 43.30768 | 5.04056 | 36999 ft | 396 kts | 291° |
| 2026-05-04 16:02 | 43.32601 | 4.96956 | 36999 ft | 396 kts | 291° |
| 2026-05-04 16:03 | 43.35361 | 4.86304 | 36999 ft | 397 kts | 290° |
| 2026-05-04 16:03 | 43.37184 | 4.79260 | 36999 ft | 397 kts | 290° |
| 2026-05-04 16:04 | 43.39032 | 4.72093 | 37000 ft | 398 kts | 289° |
| 2026-05-04 16:04 | 43.41766 | 4.61416 | 36999 ft | 397 kts | 289° |
| 2026-05-04 16:05 | 43.43590 | 4.54256 | 37000 ft | 397 kts | 289° |
| 2026-05-04 16:06 | 43.46310 | 4.43537 | 37000 ft | 398 kts | 289° |
| 2026-05-04 16:07 | 43.49926 | 4.29185 | 37000 ft | 398 kts | 289° |
| 2026-05-04 16:08 | 43.53519 | 4.14814 | 36999 ft | 398 kts | 289° |
| 2026-05-04 16:09 | 43.57955 | 3.96951 | 36999 ft | 397 kts | 288° |
| 2026-05-04 16:10 | 43.60622 | 3.82216 | 36999 ft | 398 kts | 284° |
| 2026-05-04 16:11 | 43.63257 | 3.67500 | 36988 ft | 398 kts | 285° |
| 2026-05-04 16:12 | 43.67218 | 3.45297 | 36967 ft | 398 kts | 285° |
| 2026-05-04 16:13 | 43.69809 | 3.30624 | 36939 ft | 398 kts | 284° |
| 2026-05-04 16:14 | 43.72338 | 3.16138 | 35427 ft | 387 kts | 284° |
| 2026-05-04 16:15 | 43.74192 | 3.05496 | 32010 ft | 385 kts | 284° |
| 2026-05-04 16:16 | 43.75445 | 2.98313 | 29181 ft | 392 kts | 283° |
| 2026-05-04 16:16 | 43.75246 | 2.87179 | 24637 ft | 409 kts | 251° |
| 2026-05-04 16:17 | 43.72148 | 2.80348 | 23249 ft | 425 kts | 230° |
| 2026-05-04 16:18 | 43.65612 | 2.72308 | 21070 ft | 417 kts | 226° |
| 2026-05-04 16:18 | 43.63490 | 2.69699 | 20336 ft | 410 kts | 226° |
| 2026-05-04 16:19 | 43.57408 | 2.61797 | 18143 ft | 396 kts | 236° |
| 2026-05-04 16:19 | 43.54503 | 2.55503 | 16693 ft | 388 kts | 250° |
| 2026-05-04 16:20 | 43.52954 | 2.45046 | 14627 ft | 374 kts | 266° |
| 2026-05-04 16:20 | 43.52470 | 2.38055 | 13254 ft | 360 kts | 266° |
| 2026-05-04 16:21 | 43.51765 | 2.27790 | 11405 ft | 347 kts | 265° |
| 2026-05-04 16:22 | 43.51333 | 2.21436 | 10888 ft | 315 kts | 264° |
| 2026-05-04 16:22 | 43.50756 | 2.13002 | 10441 ft | 283 kts | 264° |
| 2026-05-04 16:23 | 43.50231 | 2.05419 | 9921 ft | 251 kts | 263° |
| 2026-05-04 16:24 | 43.49573 | 1.95935 | 8662 ft | 249 kts | 261° |
| 2026-05-04 16:25 | 43.49244 | 1.91258 | 8044 ft | 249 kts | 262° |
| 2026-05-04 16:26 | 43.48844 | 1.81719 | 6799 ft | 250 kts | 267° |
| 2026-05-04 16:26 | 43.48515 | 1.74886 | 5916 ft | 223 kts | 268° |
| 2026-05-04 16:27 | 43.48371 | 1.70670 | 5560 ft | 221 kts | 268° |
| 2026-05-04 16:28 | 43.48110 | 1.64280 | 4985 ft | 222 kts | 269° |
| 2026-05-04 16:28 | 43.47845 | 1.58006 | 4250 ft | 206 kts | 269° |
| 2026-05-04 16:29 | 43.48190 | 1.51517 | 3538 ft | 158 kts | 318° |
| 2026-05-04 16:30 | 43.50749 | 1.48779 | 3131 ft | 154 kts | 321° |
| 2026-05-04 16:31 | 43.52327 | 1.47142 | 2950 ft | 146 kts | 321° |
| 2026-05-04 16:31 | 43.54572 | 1.44815 | 2319 ft | 145 kts | 321° |
| 2026-05-04 16:32 | 43.56896 | 1.42404 | 1750 ft | 135 kts | 322° |
| 2026-05-04 16:33 | 43.58398 | 1.40844 | 1382 ft | 135 kts | 322° |
| 2026-05-04 16:33 | 43.59899 | 1.39294 | 1036 ft | 134 kts | 322° |
| 2026-05-04 16:34 | 43.61389 | 1.37750 | 705 ft | 134 kts | 321° |
| 2026-05-04 16:34 | 43.62133 | 1.36975 | 533 ft | 132 kts | 322° |
| 2026-05-04 16:35 | 43.63515 | 1.35526 | 498 ft | 29 kts | 326° |
| 2026-05-04 16:35 | 43.63652 | 1.35637 | 495 ft | 0 kts | 53° |
| 2026-05-04 16:36 | 43.63683 | 1.35694 | 495 ft | 7 kts | 53° |
| 2026-05-04 16:37 | 43.63794 | 1.35894 | 495 ft | 17 kts | 52° |
| 2026-05-04 16:37 | 43.63781 | 1.36025 | 495 ft | 16 kts | 143° |
| 2026-05-04 16:37 | 43.63577 | 1.36240 | 496 ft | 20 kts | 144° |
| 2026-05-04 16:38 | 43.63331 | 1.36498 | 498 ft | 22 kts | 145° |
| 2026-05-04 16:39 | 43.63337 | 1.36813 | 495 ft | 9 kts | 55° |
| 2026-05-04 16:39 | 43.63313 | 1.36897 | 495 ft | 3 kts | 156° |
| 2026-05-04 16:40 | 43.63280 | 1.36917 | 495 ft | 1 kts | 158° |
| 2026-05-04 16:40 | 43.63273 | 1.36921 | 495 ft | 0 kts | 158° |